Time;durP1;ratioP1;P1;durP2;ratioP2;P2;SDS_P1;SDS_P2;PMS_P1;PMS_P2;Temp;Humidity;BMP_temperature;BMP_pressure;BME280_temperature;BME280_humidity;BME280_pressure;Samples;Min_cycle;Max_cycle;Signal;HPM_P1;HPM_P2
2021/11/23 00:01:48;;;;;;;8.23;4.20;;;;;;;;;;5064190;28;20079;-67
2021/11/23 00:04:36;;;;;;;8.57;3.95;;;;;;;;;;5044269;28;20053;-66
2021/11/23 00:07:06;;;;;;;7.85;3.88;;;;;;;;;;5051653;28;20121;-66
2021/11/23 00:09:34;;;;;;;10.70;4.13;;;;;;;;;;5066269;28;20048;-66
2021/11/23 00:12:03;;;;;;;8.30;3.95;;;;;;;;;;5067346;28;20159;-66
2021/11/23 00:14:33;;;;;;;7.22;3.85;;;;;;;;;;5068556;28;20491;-66
2021/11/23 00:17:01;;;;;;;9.07;4.00;;;;;;;;;;5060427;28;20056;-67
2021/11/23 00:19:29;;;;;;;9.85;4.38;;;;;;;;;;5063311;28;20476;-67
2021/11/23 00:21:58;;;;;;;9.10;4.05;;;;;;;;;;5063494;28;20500;-67
2021/11/23 00:24:28;;;;;;;8.02;3.70;;;;;;;;;;5069355;28;20079;-67
2021/11/23 00:26:56;;;;;;;8.02;4.13;;;;;;;;;;5067555;28;20140;-66
2021/11/23 00:29:24;;;;;;;9.95;4.40;;;;;;;;;;5062952;28;20123;-66
2021/11/23 00:31:53;;;;;;;13.15;4.05;;;;;;;;;;5060703;28;20059;-67
2021/11/23 00:34:21;;;;;;;9.27;4.38;;;;;;;;;;5068159;28;20072;-67
2021/11/23 00:36:50;;;;;;;9.10;4.05;;;;;;;;;;5060074;28;20131;-67
2021/11/23 00:39:18;;;;;;;9.85;4.07;;;;;;;;;;5063846;28;20044;-67
2021/11/23 00:41:48;;;;;;;9.27;4.60;;;;;;;;;;5061036;28;20048;-67
2021/11/23 00:44:16;;;;;;;9.02;4.43;;;;;;;;;;5068285;28;20048;-66
2021/11/23 00:46:45;;;;;;;8.85;4.32;;;;;;;;;;5062569;28;20040;-67
2021/11/23 00:49:14;;;;;;;8.02;3.65;;;;;;;;;;5068270;28;20060;-67
2021/11/23 00:51:42;;;;;;;12.43;4.30;;;;;;;;;;5066171;28;20124;-66
2021/11/23 00:54:11;;;;;;;8.80;3.63;;;;;;;;;;5067472;28;20163;-66
2021/11/23 00:56:39;;;;;;;10.10;4.15;;;;;;;;;;5059051;28;20072;-66
2021/11/23 00:59:09;;;;;;;10.95;4.88;;;;;;;;;;5066845;28;20503;-67
2021/11/23 01:01:37;;;;;;;14.32;4.45;;;;;;;;;;5064899;28;20046;-68
2021/11/23 01:04:06;;;;;;;9.35;4.80;;;;;;;;;;5066530;28;20553;-67
2021/11/23 01:06:34;;;;;;;12.48;4.78;;;;;;;;;;5060316;28;20184;-66
2021/11/23 01:09:03;;;;;;;10.18;4.40;;;;;;;;;;5060620;28;20045;-67
2021/11/23 01:11:31;;;;;;;12.85;5.13;;;;;;;;;;5050789;28;20067;-67
2021/11/23 01:14:00;;;;;;;8.20;4.18;;;;;;;;;;5066088;28;20110;-67
2021/11/23 01:16:30;;;;;;;12.25;5.35;;;;;;;;;;5066315;28;20140;-67
2021/11/23 01:18:58;;;;;;;10.02;5.28;;;;;;;;;;5055553;28;20465;-67
2021/11/23 01:21:26;;;;;;;9.20;4.82;;;;;;;;;;5049918;28;20052;-67
2021/11/23 01:23:55;;;;;;;9.98;4.88;;;;;;;;;;5051773;28;20404;-66
2021/11/23 01:26:23;;;;;;;9.50;4.35;;;;;;;;;;5054904;28;20056;-66
2021/11/23 01:29:05;;;;;;;8.45;4.30;;;;;;;;;;1776411;28;10023469;-66
2021/11/23 01:31:35;;;;;;;10.43;4.88;;;;;;;;;;4016585;28;10000965;-67
2021/11/23 01:34:03;;;;;;;8.18;4.40;;;;;;;;;;5062612;28;20163;-66
2021/11/23 01:36:32;;;;;;;12.80;5.03;;;;;;;;;;5060574;28;20052;-66
2021/11/23 01:39:00;;;;;;;7.68;3.65;;;;;;;;;;5066373;28;20054;-66
2021/11/23 01:41:30;;;;;;;11.35;4.55;;;;;;;;;;5072753;28;20380;-66
2021/11/23 01:43:58;;;;;;;9.05;4.05;;;;;;;;;;5066923;28;20049;-67
2021/11/23 01:46:26;;;;;;;9.15;4.50;;;;;;;;;;5060742;28;20491;-67
2021/11/23 01:48:56;;;;;;;8.15;3.80;;;;;;;;;;5055345;28;20471;-66
2021/11/23 01:51:24;;;;;;;11.15;4.75;;;;;;;;;;5060427;28;20132;-66
2021/11/23 01:53:53;;;;;;;11.15;4.75;;;;;;;;;;5065797;28;20517;-66
2021/11/23 01:56:21;;;;;;;11.25;4.22;;;;;;;;;;5063216;28;20053;-66
2021/11/23 01:58:49;;;;;;;8.63;4.55;;;;;;;;;;5066855;28;20492;-67
2021/11/23 02:01:18;;;;;;;7.97;3.72;;;;;;;;;;5068448;28;20382;-66
2021/11/23 02:03:46;;;;;;;10.35;4.60;;;;;;;;;;5063582;28;20080;-67
2021/11/23 02:06:16;;;;;;;9.63;4.53;;;;;;;;;;5061043;28;20563;-67
2021/11/23 02:08:45;;;;;;;9.63;4.35;;;;;;;;;;5051179;28;20546;-67
2021/11/23 02:11:13;;;;;;;8.48;3.80;;;;;;;;;;5060387;28;20123;-67
2021/11/23 02:13:42;;;;;;;11.75;5.40;;;;;;;;;;5062335;28;20118;-66
2021/11/23 02:16:11;;;;;;;9.05;4.30;;;;;;;;;;5057253;28;20136;-67
2021/11/23 02:18:39;;;;;;;12.10;4.32;;;;;;;;;;5057435;28;20048;-67
2021/11/23 02:21:09;;;;;;;6.90;3.28;;;;;;;;;;5064992;28;20068;-67
2021/11/23 02:23:37;;;;;;;6.88;3.85;;;;;;;;;;5057811;28;20052;-67
2021/11/23 02:26:06;;;;;;;10.65;5.13;;;;;;;;;;5061234;28;20481;-67
2021/11/23 02:28:38;;;;;;;8.48;3.72;;;;;;;;;;5336968;22;20064;-90
2021/11/23 02:31:10;;;;;;;11.60;4.68;;;;;;;;;;5034508;28;20056;-89
2021/11/23 02:33:45;;;;;;;10.00;4.60;;;;;;;;;;5042872;28;20073;-92
2021/11/23 02:36:28;;;;;;;7.55;3.75;;;;;;;;;;5042233;28;20113;-90
2021/11/23 02:39:02;;;;;;;11.70;4.82;;;;;;;;;;5043447;28;20049;-90
2021/11/23 02:41:35;;;;;;;9.15;4.32;;;;;;;;;;5043755;28;20124;-90
2021/11/23 02:44:07;;;;;;;9.20;4.43;;;;;;;;;;5032210;28;20120;-89
2021/11/23 02:46:41;;;;;;;8.75;3.97;;;;;;;;;;5044457;28;20124;-90
2021/11/23 02:49:13;;;;;;;8.55;4.75;;;;;;;;;;5043440;28;20517;-92
2021/11/23 02:51:49;;;;;;;10.43;4.70;;;;;;;;;;5050167;28;20041;-91
2021/11/23 02:54:32;;;;;;;10.23;4.22;;;;;;;;;;5018547;28;20489;-90
2021/11/23 02:57:09;;;;;;;10.05;4.72;;;;;;;;;;5038691;28;20072;-89
2021/11/23 02:59:41;;;;;;;10.73;4.40;;;;;;;;;;5043418;28;20053;-89
2021/11/23 03:02:16;;;;;;;8.68;3.97;;;;;;;;;;5041991;28;20057;-90
2021/11/23 03:04:52;;;;;;;10.90;4.82;;;;;;;;;;5040887;28;20084;-90
2021/11/23 03:07:28;;;;;;;12.70;4.75;;;;;;;;;;5043226;28;20076;-90
2021/11/23 03:10:01;;;;;;;9.18;4.00;;;;;;;;;;5049383;28;20057;-90
2021/11/23 03:12:34;;;;;;;13.93;4.85;;;;;;;;;;5043727;28;20045;-88
2021/11/23 03:15:11;;;;;;;10.88;4.63;;;;;;;;;;5045527;28;20114;-91
2021/11/23 03:17:45;;;;;;;9.82;4.65;;;;;;;;;;5028852;28;20075;-89
2021/11/23 03:20:25;;;;;;;11.77;5.32;;;;;;;;;;5054888;28;20117;-90
2021/11/23 03:22:59;;;;;;;10.18;3.90;;;;;;;;;;5027077;28;20181;-89
2021/11/23 03:25:38;;;;;;;10.13;4.60;;;;;;;;;;5025531;28;20112;-89
2021/11/23 03:28:17;;;;;;;12.93;4.43;;;;;;;;;;5019923;28;20061;-89
2021/11/23 03:30:49;;;;;;;9.90;3.97;;;;;;;;;;5003130;28;20184;-91
2021/11/23 03:33:20;;;;;;;11.73;5.13;;;;;;;;;;5001760;28;20125;-90
2021/11/23 03:35:54;;;;;;;8.68;3.92;;;;;;;;;;5002863;28;20417;-91
2021/11/23 03:38:28;;;;;;;10.63;4.70;;;;;;;;;;5009410;28;20049;-89
2021/11/23 03:40:59;;;;;;;12.05;4.72;;;;;;;;;;5005513;28;20050;-90
2021/11/23 03:43:37;;;;;;;12.45;5.00;;;;;;;;;;4975173;28;20087;-90
2021/11/23 03:46:11;;;;;;;9.55;4.32;;;;;;;;;;4991828;28;20073;-90
2021/11/23 03:48:45;;;;;;;10.13;4.85;;;;;;;;;;5008987;28;20081;-89
2021/11/23 03:51:27;;;;;;;11.02;4.82;;;;;;;;;;5022335;28;20041;-89
2021/11/23 03:54:02;;;;;;;7.63;4.15;;;;;;;;;;5021815;28;20062;-91
2021/11/23 03:56:39;;;;;;;11.47;5.27;;;;;;;;;;5023854;28;20512;-90
2021/11/23 03:59:10;;;;;;;8.05;3.85;;;;;;;;;;5004849;28;20136;-90
2021/11/23 04:01:44;;;;;;;10.80;4.80;;;;;;;;;;5023565;28;20042;-90
2021/11/23 04:04:15;;;;;;;10.43;4.78;;;;;;;;;;5022282;28;20079;-90
2021/11/23 04:06:51;;;;;;;10.93;4.95;;;;;;;;;;5022737;28;20144;-89
2021/11/23 04:12:06;;;;;;;10.27;4.45;;;;;;;;;;5022310;28;20508;-89
2021/11/23 04:14:36;;;;;;;9.40;4.65;;;;;;;;;;5021215;28;20068;-90
2021/11/23 04:17:12;;;;;;;10.40;4.30;;;;;;;;;;5015996;28;20473;-90
2021/11/23 04:19:42;;;;;;;9.50;4.68;;;;;;;;;;5024354;28;20053;-89
2021/11/23 04:22:11;;;;;;;10.65;4.35;;;;;;;;;;5021796;28;20160;-90
2021/11/23 04:24:44;;;;;;;8.57;4.28;;;;;;;;;;5008751;28;20073;-90
2021/11/23 04:27:23;;;;;;;8.90;4.35;;;;;;;;;;5018682;28;20478;-90
2021/11/23 04:29:53;;;;;;;10.70;4.53;;;;;;;;;;5022520;28;20133;-91
2021/11/23 04:32:24;;;;;;;9.07;4.50;;;;;;;;;;5015791;28;20316;-89
2021/11/23 04:34:53;;;;;;;10.82;4.25;;;;;;;;;;5022715;28;20089;-89
2021/11/23 04:37:26;;;;;;;11.55;4.72;;;;;;;;;;5029675;28;20103;-90
2021/11/23 04:40:00;;;;;;;10.45;4.68;;;;;;;;;;5026736;28;20073;-90
2021/11/23 04:42:39;;;;;;;9.32;5.00;;;;;;;;;;5022385;28;20047;-89
2021/11/23 04:45:13;;;;;;;9.57;4.68;;;;;;;;;;5017343;28;20100;-89
2021/11/23 04:47:47;;;;;;;9.63;4.00;;;;;;;;;;5022754;28;20453;-89
2021/11/23 04:50:16;;;;;;;11.02;4.75;;;;;;;;;;5022467;28;20057;-90
2021/11/23 04:52:49;;;;;;;9.57;4.20;;;;;;;;;;5007604;28;20042;-91
2021/11/23 04:55:21;;;;;;;9.05;4.25;;;;;;;;;;5021360;28;20057;-91
2021/11/23 04:57:53;;;;;;;11.63;4.68;;;;;;;;;;5012862;28;20402;-90
2021/11/23 05:00:26;;;;;;;11.68;4.88;;;;;;;;;;5020540;28;20052;-88
2021/11/23 05:03:00;;;;;;;7.90;4.05;;;;;;;;;;5021257;28;20054;-90
2021/11/23 05:08:37;;;;;;;11.13;4.32;;;;;;;;;;5022731;28;20046;-89
2021/11/23 05:11:17;;;;;;;8.60;4.15;;;;;;;;;;5020301;28;20045;-90
2021/11/23 05:14:14;;;;;;;13.13;4.80;;;;;;;;;;5002595;28;20041;-91
2021/11/23 05:16:50;;;;;;;10.48;4.35;;;;;;;;;;5021228;28;20041;-91
2021/11/23 05:19:27;;;;;;;8.77;4.10;;;;;;;;;;5020346;28;20045;-90
2021/11/23 05:22:01;;;;;;;11.13;4.70;;;;;;;;;;5017263;28;20309;-90
2021/11/23 05:24:36;;;;;;;13.40;4.45;;;;;;;;;;5013305;28;20064;-90
2021/11/23 05:27:07;;;;;;;8.63;4.57;;;;;;;;;;5014183;28;20355;-90
2021/11/23 05:29:37;;;;;;;11.80;5.00;;;;;;;;;;5020154;28;20058;-90
2021/11/23 05:34:55;;;;;;;15.05;5.03;;;;;;;;;;5023387;28;20069;-89
2021/11/23 05:37:35;;;;;;;12.93;5.13;;;;;;;;;;5018594;28;20140;-89
2021/11/23 05:40:16;;;;;;;11.73;5.18;;;;;;;;;;5019036;28;20042;-89
2021/11/23 05:48:45;;;;;;;15.38;4.85;;;;;;;;;;5010762;28;20245;-93
2021/11/23 05:54:08;;;;;;;14.52;5.68;;;;;;;;;;4999679;28;20073;-91
2021/11/23 05:56:47;;;;;;;13.43;5.15;;;;;;;;;;5018525;28;20096;-93
2021/11/23 05:59:35;;;;;;;10.98;5.13;;;;;;;;;;5016287;28;20050;-89
2021/11/23 06:02:04;;;;;;;10.50;5.03;;;;;;;;;;5000346;28;20123;-90
2021/11/23 06:04:36;;;;;;;11.65;5.40;;;;;;;;;;5034461;28;20109;-91
2021/11/23 06:07:09;;;;;;;12.73;5.07;;;;;;;;;;5016049;28;20556;-88
2021/11/23 06:09:39;;;;;;;16.43;6.27;;;;;;;;;;4997437;28;20054;-89
2021/11/23 06:12:12;;;;;;;11.48;4.78;;;;;;;;;;5033073;28;20096;-90
2021/11/23 06:14:47;;;;;;;12.02;5.20;;;;;;;;;;5019996;28;20053;-89
2021/11/23 06:17:16;;;;;;;11.00;4.88;;;;;;;;;;5020399;28;20069;-90
2021/11/23 06:19:46;;;;;;;11.65;5.15;;;;;;;;;;5024139;28;20080;-91
2021/11/23 06:22:19;;;;;;;15.13;5.05;;;;;;;;;;5005923;28;20060;-91
2021/11/23 06:24:49;;;;;;;15.40;5.72;;;;;;;;;;5020628;28;20125;-89
2021/11/23 06:27:18;;;;;;;14.63;5.47;;;;;;;;;;5023133;28;20042;-89
2021/11/23 06:30:00;;;;;;;12.55;4.78;;;;;;;;;;5026198;28;20069;-90
2021/11/23 06:32:48;;;;;;;13.18;4.93;;;;;;;;;;5028283;28;20053;-90
2021/11/23 06:35:20;;;;;;;14.23;5.00;;;;;;;;;;5031744;28;20050;-90
2021/11/23 06:38:10;;;;;;;11.63;5.25;;;;;;;;;;5015825;28;20049;-90
2021/11/23 06:41:00;;;;;;;11.50;5.65;;;;;;;;;;5019844;28;20046;-91
2021/11/23 06:43:49;;;;;;;12.40;5.30;;;;;;;;;;5027937;28;20122;-88
2021/11/23 06:46:19;;;;;;;10.00;4.88;;;;;;;;;;5008943;28;20046;-89
2021/11/23 06:48:48;;;;;;;10.70;5.65;;;;;;;;;;5015321;28;20141;-89
2021/11/23 06:51:17;;;;;;;11.70;5.30;;;;;;;;;;5014983;28;20144;-89
2021/11/23 06:53:47;;;;;;;15.10;5.47;;;;;;;;;;5013243;28;20050;-88
2021/11/23 06:56:16;;;;;;;12.98;5.10;;;;;;;;;;5016389;28;20065;-89
2021/11/23 06:58:45;;;;;;;12.07;5.20;;;;;;;;;;5014830;28;20056;-89
2021/11/23 07:01:14;;;;;;;13.32;5.90;;;;;;;;;;5016407;28;20068;-89
2021/11/23 07:03:45;;;;;;;11.57;5.22;;;;;;;;;;5013007;28;20470;-89
2021/11/23 07:06:14;;;;;;;13.45;5.75;;;;;;;;;;5014646;28;20081;-89
2021/11/23 07:08:43;;;;;;;11.30;5.65;;;;;;;;;;5000171;28;20050;-89
2021/11/23 07:11:14;;;;;;;13.02;5.28;;;;;;;;;;5021827;28;20151;-89
2021/11/23 07:13:43;;;;;;;18.38;5.55;;;;;;;;;;5011613;28;20136;-90
2021/11/23 07:16:26;;;;;;;16.98;5.80;;;;;;;;;;5012880;28;20483;-89
2021/11/23 07:18:57;;;;;;;10.80;5.15;;;;;;;;;;5015940;28;20081;-91
2021/11/23 07:21:25;;;;;;;14.20;5.93;;;;;;;;;;5021256;28;20042;-89
2021/11/23 07:23:58;;;;;;;13.50;5.47;;;;;;;;;;5008190;28;20053;-89
2021/11/23 07:26:28;;;;;;;13.68;5.55;;;;;;;;;;5008507;28;20054;-89
2021/11/23 07:28:57;;;;;;;11.00;5.32;;;;;;;;;;5013872;28;20068;-89
2021/11/23 07:31:26;;;;;;;15.80;6.47;;;;;;;;;;5014550;28;20488;-88
2021/11/23 07:33:55;;;;;;;12.38;5.18;;;;;;;;;;5013654;28;20053;-88
2021/11/23 07:36:25;;;;;;;13.73;5.78;;;;;;;;;;5015410;28;20050;-88
2021/11/23 07:38:55;;;;;;;15.13;6.47;;;;;;;;;;5017014;28;20054;-88
2021/11/23 07:41:25;;;;;;;14.10;6.07;;;;;;;;;;5019398;28;20191;-90
2021/11/23 07:43:54;;;;;;;14.10;6.05;;;;;;;;;;5026345;28;20486;-90
2021/11/23 07:46:38;;;;;;;13.48;5.57;;;;;;;;;;5019849;28;20113;-92
2021/11/23 07:49:13;;;;;;;18.50;6.45;;;;;;;;;;5019553;28;20046;-92
2021/11/23 07:52:34;;;;;;;13.38;5.13;;;;;;;;;;5016016;28;20056;-91
2021/11/23 08:01:38;;;;;;;15.15;6.00;;;;;;;;;;5025464;28;20053;-93
2021/11/23 08:04:27;;;;;;;12.95;5.28;;;;;;;;;;4972255;28;20052;-93
2021/11/23 08:10:07;;;;;;;15.40;6.20;;;;;;;;;;5011266;28;20050;-90
2021/11/23 08:16:10;;;;;;;9.23;4.40;;;;;;;;;;5014636;28;20045;-91
2021/11/23 08:21:44;;;;;;;12.48;5.25;;;;;;;;;;5020020;28;20048;-91
2021/11/23 08:24:40;;;;;;;11.35;5.50;;;;;;;;;;5006543;28;20435;-91
2021/11/23 08:30:23;;;;;;;13.48;6.05;;;;;;;;;;5030528;28;20152;-91
2021/11/23 08:33:13;;;;;;;17.10;5.43;;;;;;;;;;5007127;28;20053;-92
2021/11/23 08:35:48;;;;;;;11.83;5.07;;;;;;;;;;5001522;28;20049;-91
2021/11/23 08:41:31;;;;;;;13.82;5.63;;;;;;;;;;5011224;28;20489;-90
2021/11/23 08:44:30;;;;;;;10.45;5.22;;;;;;;;;;4990669;28;20050;-91
2021/11/23 08:59:22;;;;;;;12.85;6.07;;;;;;;;;;5006780;28;20052;-92
2021/11/23 09:01:52;;;;;;;11.70;5.90;;;;;;;;;;4997312;28;20062;-92
2021/11/23 09:10:29;;;;;;;11.18;5.60;;;;;;;;;;5016352;28;20100;-91
2021/11/23 09:16:06;;;;;;;10.32;4.90;;;;;;;;;;5014539;28;20055;-90
2021/11/23 09:24:39;;;;;;;11.70;6.03;;;;;;;;;;4978378;28;20078;-92
2021/11/23 09:27:37;;;;;;;13.20;5.57;;;;;;;;;;5010696;28;20064;-91
2021/11/23 09:30:27;;;;;;;12.63;5.97;;;;;;;;;;5014738;28;20056;-91
2021/11/23 09:33:02;;;;;;;17.38;5.93;;;;;;;;;;5017320;28;20099;-92
2021/11/23 09:35:42;;;;;;;10.80;5.53;;;;;;;;;;5001362;28;20053;-92
2021/11/23 09:38:36;;;;;;;11.52;5.47;;;;;;;;;;5019947;28;20053;-92
2021/11/23 09:44:19;;;;;;;13.25;5.95;;;;;;;;;;5030508;28;20088;-92
2021/11/23 09:47:03;;;;;;;12.00;5.60;;;;;;;;;;5022030;28;20069;-92
2021/11/23 09:49:46;;;;;;;15.63;6.13;;;;;;;;;;5022992;28;20065;-93
2021/11/23 09:52:30;;;;;;;12.05;5.07;;;;;;;;;;5007014;28;20104;-92
2021/11/23 09:55:20;;;;;;;11.90;5.22;;;;;;;;;;5017696;28;20041;-93
2021/11/23 09:57:56;;;;;;;13.05;5.70;;;;;;;;;;5026455;28;20058;-93
2021/11/23 10:06:31;;;;;;;13.90;6.18;;;;;;;;;;5026495;28;20389;-92
2021/11/23 10:09:09;;;;;;;12.82;6.10;;;;;;;;;;5027402;28;20053;-93
2021/11/23 10:17:26;;;;;;;12.82;6.22;;;;;;;;;;5039281;28;20107;-91
2021/11/23 10:19:56;;;;;;;13.10;6.70;;;;;;;;;;5026419;28;20057;-91
2021/11/23 10:22:41;;;;;;;14.52;6.82;;;;;;;;;;5005830;28;20050;-92
2021/11/23 10:25:11;;;;;;;14.98;7.63;;;;;;;;;;5011161;28;20117;-92
2021/11/23 10:27:43;;;;;;;14.23;6.78;;;;;;;;;;5017048;28;20414;-89
2021/11/23 10:33:21;;;;;;;17.20;6.78;;;;;;;;;;5014189;28;20311;-92
2021/11/23 10:39:09;;;;;;;13.00;6.70;;;;;;;;;;5014687;28;20053;-91
2021/11/23 10:41:42;;;;;;;16.23;7.65;;;;;;;;;;5006641;28;20116;-89
2021/11/23 10:47:01;;;;;;;17.90;8.02;;;;;;;;;;5022234;28;20053;-88
2021/11/23 10:49:31;;;;;;;16.92;7.95;;;;;;;;;;5010274;28;20045;-92
2021/11/23 10:55:14;;;;;;;14.85;6.88;;;;;;;;;;5007735;28;20064;-91
2021/11/23 10:57:54;;;;;;;13.18;6.80;;;;;;;;;;4998528;28;20048;-90
2021/11/23 11:00:39;;;;;;;14.63;7.00;;;;;;;;;;5016385;28;20136;-91
2021/11/23 11:03:10;;;;;;;14.18;6.97;;;;;;;;;;5022782;28;20049;-91
2021/11/23 11:05:40;;;;;;;12.30;6.35;;;;;;;;;;5028754;28;20045;-92
2021/11/23 11:11:20;;;;;;;14.38;6.25;;;;;;;;;;5010504;28;20049;-94
2021/11/23 11:13:54;;;;;;;12.27;5.80;;;;;;;;;;4993772;28;20054;-91
2021/11/23 11:16:49;;;;;;;14.35;7.22;;;;;;;;;;5026938;28;20042;-92
2021/11/23 11:31:40;;;;;;;13.50;5.25;;;;;;;;;;5014156;28;20084;-90
2021/11/23 11:34:30;;;;;;;18.17;6.72;;;;;;;;;;5015109;28;20165;-93
2021/11/23 11:40:03;;;;;;;11.52;6.15;;;;;;;;;;5014945;28;20077;-93
2021/11/23 11:43:03;;;;;;;15.25;6.45;;;;;;;;;;5015043;28;20073;-92
2021/11/23 11:46:06;;;;;;;12.88;6.53;;;;;;;;;;4957227;28;20121;-92
2021/11/23 11:48:55;;;;;;;13.93;6.63;;;;;;;;;;5005157;28;20141;-92
2021/11/23 11:51:31;;;;;;;12.25;5.45;;;;;;;;;;5015683;28;20088;-92
2021/11/23 11:54:27;;;;;;;14.90;6.43;;;;;;;;;;4990176;28;20509;-92
2021/11/23 11:57:34;;;;;;;13.98;5.55;;;;;;;;;;5019235;28;20046;-92
2021/11/23 12:00:18;;;;;;;12.38;6.65;;;;;;;;;;5024584;28;20057;-92
2021/11/23 12:02:47;;;;;;;14.65;6.00;;;;;;;;;;5014803;28;20050;-92
2021/11/23 12:05:57;;;;;;;11.77;6.28;;;;;;;;;;5018695;28;20052;-92
2021/11/23 12:11:48;;;;;;;13.38;5.95;;;;;;;;;;5015768;28;20066;-91
2021/11/23 12:14:25;;;;;;;13.82;6.15;;;;;;;;;;5013735;28;20096;-92
2021/11/23 12:17:02;;;;;;;17.90;6.47;;;;;;;;;;5014411;28;20050;-92
2021/11/23 12:19:56;;;;;;;15.18;6.13;;;;;;;;;;5016975;28;20077;-92
2021/11/23 12:25:20;;;;;;;9.93;5.38;;;;;;;;;;4964588;28;20081;-93
2021/11/23 12:27:51;;;;;;;13.48;6.03;;;;;;;;;;5012896;28;20109;-92
2021/11/23 12:30:35;;;;;;;13.43;5.95;;;;;;;;;;5011387;28;20081;-91
2021/11/23 12:42:53;;;;;;;11.43;5.22;;;;;;;;;;5012186;28;20548;-90
2021/11/23 12:45:25;;;;;;;14.15;6.47;;;;;;;;;;5009854;28;20045;-91
2021/11/23 12:48:06;;;;;;;10.05;5.47;;;;;;;;;;5010125;28;20050;-91
2021/11/23 12:50:55;;;;;;;13.55;6.30;;;;;;;;;;5003202;28;20062;-88
2021/11/23 12:53:25;;;;;;;10.45;5.82;;;;;;;;;;5012365;28;20053;-89
2021/11/23 12:56:00;;;;;;;10.73;5.55;;;;;;;;;;5012199;28;20129;-92
2021/11/23 12:58:37;;;;;;;12.07;5.43;;;;;;;;;;5018295;28;20053;-92
2021/11/23 13:01:06;;;;;;;14.65;6.43;;;;;;;;;;5014930;28;20058;-92
2021/11/23 13:03:37;;;;;;;13.15;5.75;;;;;;;;;;4992012;28;20050;-92
2021/11/23 13:06:10;;;;;;;12.02;5.90;;;;;;;;;;4980039;28;20269;-91
2021/11/23 13:09:08;;;;;;;12.43;6.00;;;;;;;;;;4973132;28;20073;-92
2021/11/23 13:11:40;;;;;;;13.63;6.10;;;;;;;;;;4970681;28;20529;-92
2021/11/23 13:14:22;;;;;;;13.68;6.90;;;;;;;;;;4938138;28;20055;-93
2021/11/23 13:16:54;;;;;;;13.43;6.18;;;;;;;;;;4969545;28;20062;-91
2021/11/23 13:19:27;;;;;;;11.00;6.13;;;;;;;;;;4949505;28;20058;-90
2021/11/23 13:22:02;;;;;;;9.25;5.75;;;;;;;;;;4955834;28;20061;-92
2021/11/23 13:24:40;;;;;;;12.98;6.18;;;;;;;;;;4964314;28;20047;-91
2021/11/23 13:27:14;;;;;;;9.88;5.78;;;;;;;;;;4973960;28;20129;-91
2021/11/23 13:32:46;;;;;;;12.35;5.85;;;;;;;;;;4990275;28;20051;-91
2021/11/23 13:35:15;;;;;;;12.00;6.22;;;;;;;;;;4971039;28;20057;-91
2021/11/23 13:40:46;;;;;;;12.82;6.35;;;;;;;;;;4972287;28;20094;-92
2021/11/23 13:43:26;;;;;;;12.93;5.38;;;;;;;;;;4956727;28;20571;-92
2021/11/23 13:49:04;;;;;;;14.38;5.90;;;;;;;;;;4959833;28;20054;-91
2021/11/23 13:52:04;;;;;;;10.90;5.78;;;;;;;;;;4974518;28;20106;-91
2021/11/23 13:57:44;;;;;;;11.93;5.57;;;;;;;;;;4924366;29;20077;-90
2021/11/23 14:00:22;;;;;;;10.85;5.30;;;;;;;;;;4953795;29;20058;-91
2021/11/23 14:03:01;;;;;;;10.70;5.55;;;;;;;;;;4931959;28;20063;-92
2021/11/23 14:05:50;;;;;;;13.70;5.97;;;;;;;;;;4954488;29;20058;-92
2021/11/23 14:08:38;;;;;;;10.13;5.40;;;;;;;;;;4964775;28;20598;-91
2021/11/23 14:18:13;;;;;;;10.05;4.90;;;;;;;;;;4961568;28;20151;-91
2021/11/23 14:21:01;;;;;;;10.70;5.70;;;;;;;;;;4952070;29;20047;-92
2021/11/23 14:23:40;;;;;;;10.57;5.68;;;;;;;;;;4956517;28;20191;-93
2021/11/23 14:26:11;;;;;;;10.85;6.25;;;;;;;;;;4977106;28;20049;-93
2021/11/23 14:28:43;;;;;;;12.63;5.68;;;;;;;;;;5017004;28;20046;-93
2021/11/23 14:31:15;;;;;;;11.23;5.78;;;;;;;;;;5016672;28;20062;-91
2021/11/23 14:36:49;;;;;;;19.10;6.88;;;;;;;;;;5019304;28;20053;-92
2021/11/23 14:42:31;;;;;;;12.07;5.97;;;;;;;;;;5006741;28;20045;-91
2021/11/23 14:45:09;;;;;;;14.70;6.10;;;;;;;;;;5025117;28;20050;-91
2021/11/23 14:50:23;;;;;;;9.13;5.68;;;;;;;;;;5019765;28;20045;-91
2021/11/23 14:56:41;;;;;;;10.10;6.07;;;;;;;;;;5016506;28;20046;-92
2021/11/23 14:59:25;;;;;;;;;;;;;;;;;;5024872;28;20292;-91
2021/11/23 15:05:12;;;;;;;12.50;6.20;;;;;;;;;;5008262;28;20081;-92
2021/11/23 15:08:02;;;;;;;11.50;5.53;;;;;;;;;;5000923;28;20057;-93
2021/11/23 15:10:39;;;;;;;11.98;5.88;;;;;;;;;;5017702;28;20060;-91
2021/11/23 15:13:29;;;;;;;10.85;5.57;;;;;;;;;;5017174;28;20054;-94
2021/11/23 15:16:17;;;;;;;11.18;5.85;;;;;;;;;;5015545;28;20054;-93
2021/11/23 15:18:52;;;;;;;9.45;5.55;;;;;;;;;;5016723;28;20101;-93
2021/11/23 15:21:32;;;;;;;11.77;5.03;;;;;;;;;;5005942;28;20054;-93
2021/11/23 15:24:13;;;;;;;12.27;5.72;;;;;;;;;;5016170;28;20058;-94
2021/11/23 15:38:47;;;;;;;12.55;5.78;;;;;;;;;;5013366;28;20149;-92
2021/11/23 15:41:20;;;;;;;15.13;6.68;;;;;;;;;;4997108;28;20075;-93
2021/11/23 15:43:51;;;;;;;13.98;6.68;;;;;;;;;;5002303;28;20045;-93
2021/11/23 15:46:28;;;;;;;15.73;7.03;;;;;;;;;;5019380;28;20116;-94
2021/11/23 15:49:19;;;;;;;16.95;6.82;;;;;;;;;;4999954;28;20513;-93
2021/11/23 15:51:50;;;;;;;15.02;6.82;;;;;;;;;;4996947;28;20070;-92
2021/11/23 15:54:23;;;;;;;15.70;6.55;;;;;;;;;;4995667;28;20409;-94
2021/11/23 15:56:55;;;;;;;15.82;7.68;;;;;;;;;;4994463;28;20054;-93
2021/11/23 15:59:29;;;;;;;15.48;8.95;;;;;;;;;;4995019;28;20101;-93
2021/11/23 16:01:58;;;;;;;19.17;8.88;;;;;;;;;;4999811;28;20137;-93
2021/11/23 16:05:00;;;;;;;16.70;9.00;;;;;;;;;;4979062;28;20054;-93
2021/11/23 16:07:30;;;;;;;17.05;8.77;;;;;;;;;;4989801;28;20104;-92
2021/11/23 16:09:59;;;;;;;20.83;9.45;;;;;;;;;;4990968;28;20054;-93
2021/11/23 16:12:29;;;;;;;18.50;8.93;;;;;;;;;;4992000;28;20082;-92
2021/11/23 16:15:08;;;;;;;21.35;9.70;;;;;;;;;;4991644;28;20061;-93
2021/11/23 16:17:38;;;;;;;18.05;9.98;;;;;;;;;;4974439;28;20042;-93
2021/11/23 16:20:23;;;;;;;17.33;9.10;;;;;;;;;;4990563;28;20050;-92
2021/11/23 16:23:10;;;;;;;15.48;8.90;;;;;;;;;;4977183;28;20311;-90
2021/11/23 16:25:41;;;;;;;18.63;8.93;;;;;;;;;;5003789;28;20046;-89
2021/11/23 16:28:11;;;;;;;19.30;9.52;;;;;;;;;;4992453;28;20474;-89
2021/11/23 16:31:00;;;;;;;17.13;8.63;;;;;;;;;;4994247;28;20100;-89
2021/11/23 16:33:33;;;;;;;20.73;10.35;;;;;;;;;;4993666;28;20248;-89
2021/11/23 16:36:10;;;;;;;16.30;9.15;;;;;;;;;;4994620;28;20347;-89
2021/11/23 16:38:43;;;;;;;17.05;8.80;;;;;;;;;;4996593;28;20229;-89
2021/11/23 16:41:20;;;;;;;18.08;8.70;;;;;;;;;;4993983;28;20124;-92
2021/11/23 16:43:48;;;;;;;17.45;9.43;;;;;;;;;;4993783;28;20085;-92
2021/11/23 16:46:19;;;;;;;18.05;8.65;;;;;;;;;;4993043;28;20057;-90
2021/11/23 16:48:49;;;;;;;24.40;9.32;;;;;;;;;;4995214;28;20058;-91
2021/11/23 16:51:25;;;;;;;17.50;8.88;;;;;;;;;;5000004;28;20062;-92
2021/11/23 16:53:56;;;;;;;19.90;8.05;;;;;;;;;;4996278;28;20108;-91
2021/11/23 16:56:31;;;;;;;18.67;9.07;;;;;;;;;;4997198;28;20065;-90
2021/11/23 16:59:01;;;;;;;20.08;9.48;;;;;;;;;;4990846;28;20097;-90
2021/11/23 17:01:39;;;;;;;17.27;9.38;;;;;;;;;;4990720;28;20074;-92
2021/11/23 17:04:19;;;;;;;15.77;8.68;;;;;;;;;;4991762;28;20500;-93
2021/11/23 17:07:03;;;;;;;18.58;8.98;;;;;;;;;;4991079;28;20051;-93
2021/11/23 17:09:35;;;;;;;16.67;9.43;;;;;;;;;;4993899;28;20057;-93
2021/11/23 17:12:05;;;;;;;17.38;9.02;;;;;;;;;;4997413;28;20065;-92
2021/11/23 17:17:33;;;;;;;;;;;;;;;;;;4973703;28;20081;-92
2021/11/23 17:20:04;;;;;;;18.75;8.05;;;;;;;;;;4992417;28;19936;-93
2021/11/23 17:22:39;;;;;;;19.83;9.43;;;;;;;;;;4985966;28;20052;-92
2021/11/23 17:25:11;;;;;;;17.65;8.73;;;;;;;;;;4990865;28;20498;-91
2021/11/23 17:27:42;;;;;;;21.20;10.20;;;;;;;;;;4991612;28;20046;-93
2021/11/23 17:30:13;;;;;;;19.55;8.77;;;;;;;;;;4987853;28;20108;-93
2021/11/23 17:32:46;;;;;;;17.00;8.75;;;;;;;;;;5000948;28;20046;-90
2021/11/23 17:35:25;;;;;;;15.43;8.73;;;;;;;;;;4994215;28;20058;-92
2021/11/23 17:38:05;;;;;;;19.52;9.52;;;;;;;;;;4999615;28;20062;-88
2021/11/23 17:40:35;;;;;;;18.30;8.55;;;;;;;;;;4999697;28;20046;-89
2021/11/23 17:43:12;;;;;;;17.60;8.38;;;;;;;;;;4997223;28;20054;-87
2021/11/23 17:45:45;;;;;;;15.30;7.80;;;;;;;;;;4997889;28;20050;-89
2021/11/23 17:48:17;;;;;;;15.90;8.57;;;;;;;;;;4999035;28;20056;-88
2021/11/23 17:50:51;;;;;;;18.00;8.52;;;;;;;;;;5014488;28;20081;-88
2021/11/23 17:53:23;;;;;;;18.55;8.63;;;;;;;;;;4997565;28;20485;-88
2021/11/23 17:55:55;;;;;;;15.18;8.70;;;;;;;;;;4998822;28;20401;-88
2021/11/23 17:58:30;;;;;;;15.98;8.75;;;;;;;;;;5013283;28;20110;-88
2021/11/23 18:01:00;;;;;;;18.67;9.65;;;;;;;;;;4999087;28;20438;-90
2021/11/23 18:03:31;;;;;;;15.02;8.40;;;;;;;;;;5000166;28;20073;-93
2021/11/23 18:06:13;;;;;;;16.50;7.97;;;;;;;;;;5010553;28;20421;-90
2021/11/23 18:08:43;;;;;;;15.90;8.32;;;;;;;;;;5007560;28;20050;-89
2021/11/23 18:11:15;;;;;;;18.48;8.75;;;;;;;;;;5001178;28;20377;-89
2021/11/23 18:13:48;;;;;;;16.13;8.55;;;;;;;;;;5004705;28;20065;-87
2021/11/23 18:16:33;;;;;;;16.52;8.13;;;;;;;;;;5011631;28;20081;-88
2021/11/23 18:19:04;;;;;;;16.30;8.50;;;;;;;;;;5001636;28;20050;-87